Delfin — LK8750 — position and weather

sailwx.info

Track history (hours):
 
Tides and Currents Weather Stations Pressure Air Temp Water Temp Dewpoint Dewpoint Depression Visibility Wind Speed Wind Dir Waves Ship Positions

Delfin

Last reported at 2017-Nov-16 09:05 UTC. Time now 2017-Nov-20 09:45 UTC.
Position N 70°47' E 025°56'.

Length 10 m.

Type: Fishing. MMSI: 257185440.

Date/timePositionNaut miles runAvg speedWind from/ knotsBaromVisibWave heightAir tempDewpointWater temp
2017-Nov-16 09:05N 70°47' E 025°56'0 1.2
2017-Nov-16 09:00N 70°47' E 025°56'0 0.8
2017-Nov-16 08:29N 70°46' E 025°56'0 0.7
2017-Nov-16 08:00N 70°46' E 025°57'1 1.0
2017-Nov-16 07:30N 70°46' E 025°55'1 2.0
2017-Nov-16 07:00N 70°45' E 025°53'2 3.9
2017-Nov-16 06:30N 70°45' E 025°47'1 1.2
2017-Nov-16 06:00N 70°45' E 025°49'1 1.3
2017-Nov-16 05:30N 70°45' E 025°51'1 1.3
2017-Nov-16 05:00N 70°45' E 025°52'2 3.2
2017-Nov-16 04:29N 70°46' E 025°57'2 4.5
2017-Nov-16 04:00N 70°48' E 025°56'4 7.5
2017-Nov-16 03:30N 70°52' E 025°59'4 7.8
2017-Nov-16 03:00N 70°56' E 026°00'3 4.3
2017-Nov-16 02:16N 70°59' E 026°02'0 0.2
2017-Nov-16 01:41N 70°59' E 026°02'0 0.0
2017-Nov-16 01:29N 70°59' E 026°02'0 0.0
2017-Nov-16 00:59N 70°59' E 026°02'0 0.0
2017-Nov-16 00:23N 70°59' E 026°02'0 0.0
2017-Nov-15 23:59N 70°59' E 026°02'0 0.0
2017-Nov-15 23:29N 70°59' E 026°02'0 0.0
2017-Nov-15 22:59N 70°59' E 026°02'0 0.0
2017-Nov-15 22:23N 70°59' E 026°02'0 0.0
2017-Nov-15 14:29N 70°59' E 026°02'0 0.0
2017-Nov-15 13:59N 70°59' E 026°02'0 0.0
2017-Nov-15 13:29N 70°59' E 026°02'0 0.0
2017-Nov-15 12:59N 70°59' E 026°02'0 0.0
2017-Nov-15 12:29N 70°59' E 026°02'0 0.0
2017-Nov-15 11:56N 70°59' E 026°02'0 0.0
2017-Nov-15 11:29N 70°59' E 026°02'0 0.0
2017-Nov-15 10:59N 70°59' E 026°02'0 0.0
2017-Nov-15 10:29N 70°59' E 026°02'0 0.0
2017-Nov-15 09:59N 70°59' E 026°02'0 0.0
2017-Nov-15 09:23N 70°59' E 026°02'0 0.0
2017-Nov-15 08:35N 70°59' E 026°02'0 0.0
2017-Nov-15 07:53N 70°59' E 026°02'0 0.0
2017-Nov-15 01:59N 70°59' E 026°02'0 0.0
2017-Nov-15 01:23N 70°59' E 026°02'0 0.0
2017-Nov-15 00:53N 70°59' E 026°02'0 0.0
2017-Nov-15 00:29N 70°59' E 026°02'0 0.0
2017-Nov-14 23:59N 70°59' E 026°02'0 0.0
2017-Nov-14 23:29N 70°59' E 026°02'0 0.0
2017-Nov-14 22:56N 70°59' E 026°02'0 0.0
2017-Nov-14 22:29N 70°59' E 026°02'0 0.0
2017-Nov-14 21:59N 70°59' E 026°02'0 0.0
2017-Nov-14 21:23N 70°59' E 026°02'0 0.0
2017-Nov-14 17:17N 70°59' E 026°02'0 0.2
2017-Nov-14 16:47N 70°59' E 026°02'0 0.5
2017-Nov-14 16:30N 70°59' E 026°02'1 1.9
2017-Nov-14 16:00N 70°58' E 026°01'4 7.4
2017-Nov-14 15:30N 70°55' E 025°59'4 7.5
2017-Nov-14 14:59N 70°51' E 025°57'4 7.5
2017-Nov-14 14:30N 70°47' E 025°56'0 0.5
2017-Nov-14 14:00N 70°47' E 025°56'1 1.1
2017-Nov-14 13:30N 70°48' E 025°56'1 1.3
2017-Nov-14 13:00N 70°47' E 025°56'0 0.8
2017-Nov-14 12:30N 70°47' E 025°55'1 1.1
2017-Nov-14 12:00N 70°46' E 025°56'1 1.1
2017-Nov-14 11:30N 70°46' E 025°55'1 2.0
2017-Nov-14 10:59N 70°45' E 025°54'3 6.0
2017-Nov-14 10:30N 70°42' E 025°53'2 5.0
2017-Nov-14 10:00N 70°44' E 025°48'2 3.5
2017-Nov-14 09:30N 70°45' E 025°52'2 3.9
2017-Nov-14 09:00N 70°46' E 025°56'2 4.1
2017-Nov-14 08:30N 70°49' E 025°55'4 8.3
2017-Nov-14 07:59N 70°53' E 025°57'4 8.3
2017-Nov-14 07:29N 70°57' E 025°60'2 2.7
2017-Nov-14 06:33N 70°59' E 026°02'0 0.1
2017-Nov-14 06:17N 70°59' E 026°02'0 0.1
2017-Nov-14 05:35N 70°59' E 026°02'0 0.0
2017-Nov-14 01:31N 70°59' E 026°02'0 0.0
2017-Nov-14 01:28N 70°59' E 026°02'0 0.0
2017-Nov-14 00:55N 70°59' E 026°02'0 0.0
2017-Nov-14 00:19N 70°59' E 026°02'0 0.0
2017-Nov-13 23:55N 70°59' E 026°02'0 0.0
2017-Nov-13 23:28N 70°59' E 026°02'0 0.0
2017-Nov-13 22:55N 70°59' E 026°02'0 0.0
2017-Nov-13 22:25N 70°59' E 026°02'0 0.0
2017-Nov-13 21:55N 70°59' E 026°02'0 0.0
2017-Nov-13 01:59N 70°59' E 026°02'0 0.0
2017-Nov-13 01:17N 70°59' E 026°02'0 0.0
2017-Nov-13 00:59N 70°59' E 026°02'0 0.0
2017-Nov-13 00:29N 70°59' E 026°02'0 0.0
2017-Nov-12 23:59N 70°59' E 026°02'0 0.0
2017-Nov-12 23:29N 70°59' E 026°02'0 0.0
2017-Nov-12 22:59N 70°59' E 026°02'0 0.0
2017-Nov-12 22:29N 70°59' E 026°02'0 0.0
2017-Nov-12 21:59N 70°59' E 026°02'0 0.0
2017-Nov-12 21:29N 70°59' E 026°02'0 0.0
2017-Nov-12 20:59N 70°59' E 026°02'0 0.0
2017-Nov-12 20:29N 70°59' E 026°02'0 0.0
2017-Nov-12 19:59N 70°59' E 026°02'0 0.0
2017-Nov-12 19:29N 70°59' E 026°02'0 0.0
2017-Nov-12 18:59N 70°59' E 026°02'0 0.0
2017-Nov-12 18:29N 70°59' E 026°02'0 0.0
2017-Nov-12 17:56N 70°59' E 026°02'0 0.0
2017-Nov-12 17:29N 70°59' E 026°02'0 0.0
2017-Nov-12 16:59N 70°59' E 026°02'0 0.0
2017-Nov-12 16:26N 70°59' E 026°02'0 0.0
2017-Nov-12 15:59N 70°59' E 026°02'0 0.0
2017-Nov-12 15:23N 70°59' E 026°02'0 0.0
2017-Nov-12 14:59N 70°59' E 026°02'0 0.0
2017-Nov-12 14:29N 70°59' E 026°02'0 0.0
2017-Nov-12 13:56N 70°59' E 026°02'0 0.0
2017-Nov-12 13:17N 70°59' E 026°02'0 0.0
2017-Nov-12 12:50N 70°59' E 026°02'0 0.0
2017-Nov-12 12:29N 70°59' E 026°02'0 0.0
2017-Nov-12 11:59N 70°59' E 026°02'0 0.0
2017-Nov-12 11:29N 70°59' E 026°02'0 0.0
2017-Nov-12 10:59N 70°59' E 026°02'0 0.0
2017-Nov-12 10:26N 70°59' E 026°02'0 0.0
2017-Nov-12 09:56N 70°59' E 026°02'0 0.0
2017-Nov-12 09:26N 70°59' E 026°02'0 0.0
2017-Nov-12 08:59N 70°59' E 026°02'0 0.0
2017-Nov-12 08:29N 70°59' E 026°02'0 0.0
2017-Nov-12 07:56N 70°59' E 026°02'0 0.0
2017-Nov-12 07:29N 70°59' E 026°02'0 0.0
2017-Nov-12 06:59N 70°59' E 026°02'0 0.0
2017-Nov-12 06:29N 70°59' E 026°02'0 0.0
2017-Nov-12 05:59N 70°59' E 026°02'0 0.0
2017-Nov-12 05:29N 70°59' E 026°02'0 0.0
2017-Nov-12 04:59N 70°59' E 026°02'0 0.0
2017-Nov-12 04:29N 70°59' E 026°02'0 0.0
2017-Nov-12 03:56N 70°59' E 026°02'0 0.0
2017-Nov-12 03:29N 70°59' E 026°02'0 0.0
2017-Nov-12 02:35N 70°59' E 026°02'0 0.0
2017-Nov-12 02:29N 70°59' E 026°02'0 0.0
2017-Nov-12 01:59N 70°59' E 026°02'0 0.0
2017-Nov-12 01:26N 70°59' E 026°02'0 0.0
2017-Nov-12 00:35N 70°59' E 026°02'0 0.0
2017-Nov-12 00:26N 70°59' E 026°02'0 0.0
2017-Nov-11 23:38N 70°59' E 026°02'0 0.0
2017-Nov-11 23:23N 70°59' E 026°02'0 0.0
2017-Nov-11 22:56N 70°59' E 026°02'0 0.0
2017-Nov-11 22:29N 70°59' E 026°02'0 0.0
2017-Nov-11 21:59N 70°59' E 026°02'0 0.0
2017-Nov-11 21:29N 70°59' E 026°02'0 0.0
2017-Nov-11 20:59N 70°59' E 026°02'0 0.0
2017-Nov-11 20:29N 70°59' E 026°02'0 0.0
2017-Nov-11 19:53N 70°59' E 026°02'0 0.0
2017-Nov-11 19:29N 70°59' E 026°02'0 0.0
2017-Nov-11 18:59N 70°59' E 026°02'0 0.0
2017-Nov-11 18:29N 70°59' E 026°02'0 0.0
2017-Nov-11 17:56N 70°59' E 026°02'0 0.0
2017-Nov-11 17:26N 70°59' E 026°02'0 0.0
2017-Nov-11 16:59N 70°59' E 026°02'0 0.0
2017-Nov-11 16:29N 70°59' E 026°02'0 0.0
2017-Nov-11 15:50N 70°59' E 026°02'0 0.0
2017-Nov-11 15:29N 70°59' E 026°02'0 0.0
2017-Nov-11 14:59N 70°59' E 026°02'0 0.0
2017-Nov-11 14:23N 70°59' E 026°02'0 0.0
2017-Nov-11 13:50N 70°59' E 026°02'0 0.0
2017-Nov-11 13:29N 70°59' E 026°02'0 0.0
2017-Nov-11 12:59N 70°59' E 026°02'0 0.0
2017-Nov-11 12:26N 70°59' E 026°02'0 0.0
2017-Nov-11 11:59N 70°59' E 026°02'0 0.0
2017-Nov-11 11:29N 70°59' E 026°02'0 0.0
2017-Nov-11 10:56N 70°59' E 026°02'0 0.0
2017-Nov-11 10:26N 70°59' E 026°02'0 0.0
2017-Nov-11 09:56N 70°59' E 026°02'0 0.0
2017-Nov-11 09:29N 70°59' E 026°02'0 0.0
2017-Nov-11 08:56N 70°59' E 026°02'0 0.0
2017-Nov-11 08:29N 70°59' E 026°02'0 0.0
2017-Nov-11 07:59N 70°59' E 026°02'0 0.0
2017-Nov-11 07:26N 70°59' E 026°02'0 0.0
2017-Nov-11 06:59N 70°59' E 026°02'0 0.0
2017-Nov-11 06:29N 70°59' E 026°02'0 0.0
2017-Nov-11 05:59N 70°59' E 026°02'0 0.0
2017-Nov-11 05:26N 70°59' E 026°02'0 0.0
2017-Nov-11 04:59N 70°59' E 026°02'0 0.0
2017-Nov-11 04:29N 70°59' E 026°02'0 0.0
2017-Nov-11 03:59N 70°59' E 026°02'0 0.0
2017-Nov-11 03:29N 70°59' E 026°02'0 0.0
2017-Nov-11 02:59N 70°59' E 026°02'0 0.0
2017-Nov-11 02:17N 70°59' E 026°02'0 0.0
2017-Nov-11 01:59N 70°59' E 026°02'0 0.0
2017-Nov-11 01:29N 70°59' E 026°02'0 0.0
2017-Nov-11 00:59N 70°59' E 026°02'0 0.0
2017-Nov-11 00:29N 70°59' E 026°02'0 0.0
2017-Nov-10 23:47N 70°59' E 026°02'0 0.0
2017-Nov-10 23:29N 70°59' E 026°02'0 0.0
2017-Nov-10 22:59N 70°59' E 026°02'0 0.0
2017-Nov-10 22:29N 70°59' E 026°02'0 0.0
2017-Nov-10 21:59N 70°59' E 026°02'0 0.0
2017-Nov-10 21:29N 70°59' E 026°02'0 0.0
2017-Nov-10 20:56N 70°59' E 026°02'0 0.0
2017-Nov-10 20:26N 70°59' E 026°02'0 0.0
2017-Nov-10 19:59N 70°59' E 026°02'0 0.0
2017-Nov-10 19:29N 70°59' E 026°02'0 0.0
2017-Nov-10 18:59N 70°59' E 026°02'0 0.0
2017-Nov-10 18:26N 70°59' E 026°02'0 0.0
2017-Nov-10 17:59N 70°59' E 026°02'0 0.0
2017-Nov-10 17:29N 70°59' E 026°02'0 0.0
2017-Nov-10 16:59N 70°59' E 026°02'0 0.0
2017-Nov-10 16:26N 70°59' E 026°02'0 0.0
2017-Nov-10 15:59N 70°59' E 026°02'0 0.0
2017-Nov-10 15:29N 70°59' E 026°02'0 0.0
2017-Nov-10 14:59N 70°59' E 026°02'0 0.0
2017-Nov-10 14:23N 70°59' E 026°02'0 0.0
2017-Nov-10 13:59N 70°59' E 026°02'0 0.0
2017-Nov-10 13:29N 70°59' E 026°02'0 0.0
2017-Nov-10 12:47N 70°59' E 026°02'0 0.0
2017-Nov-10 12:29N 70°59' E 026°02'0 0.0
2017-Nov-10 11:59N 70°59' E 026°02'0 0.0
2017-Nov-10 11:29N 70°59' E 026°02'0 0.0
2017-Nov-10 10:50N 70°59' E 026°02'0 0.0
2017-Nov-10 10:23N 70°59' E 026°02'0 0.0
2017-Nov-10 09:56N 70°59' E 026°02'0 0.0
2017-Nov-10 09:23N 70°59' E 026°02'0 0.0
2017-Nov-10 08:56N 70°59' E 026°02'0 0.0
2017-Nov-10 08:29N 70°59' E 026°02'0 0.0
2017-Nov-10 07:56N 70°59' E 026°02'0 0.0
2017-Nov-10 07:26N 70°59' E 026°02'0 0.0
2017-Nov-10 06:56N 70°59' E 026°02'0 0.0
2017-Nov-10 06:26N 70°59' E 026°02'0 0.0
2017-Nov-10 05:59N 70°59' E 026°02'0 0.0
2017-Nov-10 05:23N 70°59' E 026°02'0 0.0
2017-Nov-10 04:59N 70°59' E 026°02'0 0.0
2017-Nov-10 04:29N 70°59' E 026°02'0 0.0
2017-Nov-10 03:59N 70°59' E 026°02'0 0.0
2017-Nov-10 03:20N 70°59' E 026°02'0 0.0
2017-Nov-10 02:56N 70°59' E 026°02'0 0.0
2017-Nov-10 02:26N 70°59' E 026°02'0 0.0
2017-Nov-10 01:56N 70°59' E 026°02'0 0.0
2017-Nov-10 01:14N 70°59' E 026°02'0 0.0
2017-Nov-09 23:44N 70°59' E 026°02'0 0.0
2017-Nov-09 23:23N 70°59' E 026°02'0 0.0
2017-Nov-09 22:59N 70°59' E 026°02'0 0.0
2017-Nov-09 22:20N 70°59' E 026°02'0 0.0
2017-Nov-09 21:56N 70°59' E 026°02'0 0.0
2017-Nov-09 21:29N 70°59' E 026°02'0 0.0
2017-Nov-09 20:53N 70°59' E 026°02'0 0.0
2017-Nov-09 19:29N 70°59' E 026°02'0 0.0
2017-Nov-09 16:38N 70°59' E 026°02'0 0.0
2017-Nov-09 15:41N 70°59' E 026°02'0 0.0
2017-Nov-09 15:29N 70°59' E 026°02'0 0.0
2017-Nov-09 14:56N 70°59' E 026°02'0 0.0
2017-Nov-09 14:26N 70°59' E 026°02'0 0.0
2017-Nov-09 13:53N 70°59' E 026°02'0 0.0
2017-Nov-09 13:23N 70°59' E 026°02'0 0.0
2017-Nov-09 12:11N 70°59' E 026°02'0 0.0
2017-Nov-09 11:56N 70°59' E 026°02'0 0.0
2017-Nov-09 11:26N 70°59' E 026°02'0 0.0
2017-Nov-09 10:59N 70°59' E 026°02'0 0.0
2017-Nov-09 10:23N 70°59' E 026°02'0 0.0
2017-Nov-09 09:56N 70°59' E 026°02'0 0.0
2017-Nov-09 09:29N 70°59' E 026°02'0 0.0
2017-Nov-09 08:59N 70°59' E 026°02'0 0.0
2017-Nov-09 08:29N 70°59' E 026°02'0 0.0
2017-Nov-09 07:59N 70°59' E 026°02'0 0.0
2017-Nov-09 07:29N 70°59' E 026°02'0 0.0
2017-Nov-09 06:59N 70°59' E 026°02'0 0.0
2017-Nov-09 06:29N 70°59' E 026°02'0 0.0
2017-Nov-09 05:59N 70°59' E 026°02'0 0.0
2017-Nov-09 05:29N 70°59' E 026°02'0 0.0
2017-Nov-09 04:59N 70°59' E 026°02'0 0.0
2017-Nov-09 04:29N 70°59' E 026°02'0 0.0
2017-Nov-09 03:59N 70°59' E 026°02'0 0.0
2017-Nov-09 03:29N 70°59' E 026°02'0 0.0
2017-Nov-09 02:53N 70°59' E 026°02'0 0.0
2017-Nov-09 02:29N 70°59' E 026°02'0 0.0
2017-Nov-09 01:53N 70°59' E 026°02'0 0.0
2017-Nov-09 01:29N 70°59' E 026°02'0 0.0
2017-Nov-08 23:35N 70°59' E 026°02'0 0.0
2017-Nov-08 22:53N 70°59' E 026°02'0 0.0
2017-Nov-08 21:23N 70°59' E 026°02'0 0.0
2017-Nov-08 20:29N 70°59' E 026°02'0 0.0
2017-Nov-08 19:56N 70°59' E 026°02'0 0.0
2017-Nov-08 19:26N 70°59' E 026°02'0 0.0
2017-Nov-08 18:59N 70°59' E 026°02'0 0.0
2017-Nov-08 18:29N 70°59' E 026°02'0 0.0
2017-Nov-08 17:59N 70°59' E 026°02'0 0.0
2017-Nov-08 17:17N 70°59' E 026°02'0 0.0
2017-Nov-08 16:53N 70°59' E 026°02'0 0.0
2017-Nov-08 16:29N 70°59' E 026°02'0 0.0
2017-Nov-08 15:59N 70°59' E 026°02'0 0.0
2017-Nov-08 15:29N 70°59' E 026°02'0 0.0
2017-Nov-08 14:59N 70°59' E 026°02'0 0.0
2017-Nov-08 14:29N 70°59' E 026°02'0 0.0
2017-Nov-08 11:47N 70°59' E 026°02'0 0.0
2017-Nov-08 09:05N 70°59' E 026°02'0 0.0
2017-Nov-08 08:59N 70°59' E 026°02'0 0.0
2017-Nov-08 08:29N 70°59' E 026°02'0 0.0
2017-Nov-08 07:59N 70°59' E 026°02'0 0.0
2017-Nov-08 07:23N 70°59' E 026°02'0 0.0
2017-Nov-08 06:59N 70°59' E 026°02'0 0.0
2017-Nov-08 06:29N 70°59' E 026°02'0 0.0
2017-Nov-08 05:56N 70°59' E 026°02'0 0.0
2017-Nov-08 05:29N 70°59' E 026°02'0 0.0
2017-Nov-08 04:50N 70°59' E 026°02'0 0.0
2017-Nov-08 04:23N 70°59' E 026°02'0 0.0
2017-Nov-08 03:59N 70°59' E 026°02'0 0.0
2017-Nov-08 03:29N 70°59' E 026°02'0 0.0
2017-Nov-08 02:59N 70°59' E 026°02'0 0.0
2017-Nov-08 02:26N 70°59' E 026°02'0 0.0
2017-Nov-08 01:56N 70°59' E 026°02'0 0.0
2017-Nov-08 01:29N 70°59' E 026°02'0 0.0
2017-Nov-08 00:59N 70°59' E 026°02'0 0.0
2017-Nov-08 00:29N 70°59' E 026°02'0 0.0
2017-Nov-07 22:26N 70°59' E 026°02'0 0.0
2017-Nov-07 18:56N 70°59' E 026°02'0 0.0
2017-Nov-07 18:29N 70°59' E 026°02'0 0.0
2017-Nov-07 17:59N 70°59' E 026°02'0 0.0
2017-Nov-07 17:20N 70°59' E 026°02'0 0.0
2017-Nov-07 16:44N 70°59' E 026°02'0 0.0
2017-Nov-07 16:29N 70°59' E 026°02'0 0.0
2017-Nov-07 15:56N 70°59' E 026°02'0 0.0
2017-Nov-07 15:23N 70°59' E 026°02'0 0.0
2017-Nov-07 14:59N 70°59' E 026°02'0 0.0
2017-Nov-07 14:26N 70°59' E 026°02'0 0.0
2017-Nov-07 13:53N 70°59' E 026°02'0 0.0
2017-Nov-07 13:29N 70°59' E 026°02'0 0.0
2017-Nov-07 12:47N 70°59' E 026°02'0 0.0
2017-Nov-07 12:29N 70°59' E 026°02'0 0.0
2017-Nov-07 11:59N 70°59' E 026°02'0 0.0
2017-Nov-07 11:23N 70°59' E 026°02'0 0.0
2017-Nov-07 10:59N 70°59' E 026°02'0 0.0
2017-Nov-07 10:29N 70°59' E 026°02'0 0.0
2017-Nov-07 09:59N 70°59' E 026°02'0 0.0
2017-Nov-07 09:23N 70°59' E 026°02'0 0.0
2017-Nov-07 08:50N 70°59' E 026°02'0 0.0
2017-Nov-07 08:26N 70°59' E 026°02'0 0.0
2017-Nov-07 07:47N 70°59' E 026°02'0 0.0
2017-Nov-07 07:29N 70°59' E 026°02'0 0.0
2017-Nov-07 06:59N 70°59' E 026°02'0 0.0
2017-Nov-07 06:29N 70°59' E 026°02'0 0.0
2017-Nov-07 05:53N 70°59' E 026°02'0 0.0
2017-Nov-07 05:26N 70°59' E 026°02'0 0.0
2017-Nov-07 04:56N 70°59' E 026°02'0 0.0
2017-Nov-07 04:29N 70°59' E 026°02'0 0.0
2017-Nov-07 03:59N 70°59' E 026°02'0 0.0
2017-Nov-07 03:29N 70°59' E 026°02'0 0.0
2017-Nov-07 02:59N 70°59' E 026°02'0 0.0
2017-Nov-07 02:29N 70°59' E 026°02'0 0.0
2017-Nov-07 01:56N 70°59' E 026°02'0 0.0
2017-Nov-07 01:29N 70°59' E 026°02'0 0.0
2017-Nov-07 00:59N 70°59' E 026°02'0 0.0
2017-Nov-07 00:29N 70°59' E 026°02'0 0.0
2017-Nov-06 23:59N 70°59' E 026°02'0 0.0
2017-Nov-06 23:29N 70°59' E 026°02'0 0.0
2017-Nov-06 22:56N 70°59' E 026°02'0 0.0
2017-Nov-06 22:20N 70°59' E 026°02'0 0.0
2017-Nov-06 21:59N 70°59' E 026°02'0 0.0
2017-Nov-06 21:29N 70°59' E 026°02'0 0.0
2017-Nov-06 20:59N 70°59' E 026°02'0 0.0
2017-Nov-06 20:29N 70°59' E 026°02'  
Track history (hours):
 
Tides and Currents Weather Stations Pressure Air Temp Water Temp Dewpoint Dewpoint Depression Visibility Wind Speed Wind Dir Waves Ship Positions

Delfin

Last reported at 2017-Nov-16 09:05 UTC. Time now 2017-Nov-20 09:45 UTC.
Position N 70°47' E 025°56'.

Length 10 m.

Type: Fishing. MMSI: 257185440.

Date/timePositionNaut miles runAvg speedWind from/ knotsBaromVisibWave heightAir tempDewpointWater temp
2017-Nov-16 09:05N 70°47' E 025°56'0 1.2
2017-Nov-16 09:00N 70°47' E 025°56'0 0.8
2017-Nov-16 08:29N 70°46' E 025°56'0 0.7
2017-Nov-16 08:00N 70°46' E 025°57'1 1.0
2017-Nov-16 07:30N 70°46' E 025°55'1 2.0
2017-Nov-16 07:00N 70°45' E 025°53'2 3.9
2017-Nov-16 06:30N 70°45' E 025°47'1 1.2
2017-Nov-16 06:00N 70°45' E 025°49'1 1.3
2017-Nov-16 05:30N 70°45' E 025°51'1 1.3
2017-Nov-16 05:00N 70°45' E 025°52'2 3.2
2017-Nov-16 04:29N 70°46' E 025°57'2 4.5
2017-Nov-16 04:00N 70°48' E 025°56'4 7.5
2017-Nov-16 03:30N 70°52' E 025°59'4 7.8
2017-Nov-16 03:00N 70°56' E 026°00'3 4.3
2017-Nov-16 02:16N 70°59' E 026°02'0 0.2
2017-Nov-16 01:41N 70°59' E 026°02'0 0.0
2017-Nov-16 01:29N 70°59' E 026°02'0 0.0
2017-Nov-16 00:59N 70°59' E 026°02'0 0.0
2017-Nov-16 00:23N 70°59' E 026°02'0 0.0
2017-Nov-15 23:59N 70°59' E 026°02'0 0.0
2017-Nov-15 23:29N 70°59' E 026°02'0 0.0
2017-Nov-15 22:59N 70°59' E 026°02'0 0.0
2017-Nov-15 22:23N 70°59' E 026°02'0 0.0
2017-Nov-15 14:29N 70°59' E 026°02'0 0.0
2017-Nov-15 13:59N 70°59' E 026°02'0 0.0
2017-Nov-15 13:29N 70°59' E 026°02'0 0.0
2017-Nov-15 12:59N 70°59' E 026°02'0 0.0
2017-Nov-15 12:29N 70°59' E 026°02'0 0.0
2017-Nov-15 11:56N 70°59' E 026°02'0 0.0
2017-Nov-15 11:29N 70°59' E 026°02'0 0.0
2017-Nov-15 10:59N 70°59' E 026°02'0 0.0
2017-Nov-15 10:29N 70°59' E 026°02'0 0.0
2017-Nov-15 09:59N 70°59' E 026°02'0 0.0
2017-Nov-15 09:23N 70°59' E 026°02'0 0.0
2017-Nov-15 08:35N 70°59' E 026°02'0 0.0
2017-Nov-15 07:53N 70°59' E 026°02'0 0.0
2017-Nov-15 01:59N 70°59' E 026°02'0 0.0
2017-Nov-15 01:23N 70°59' E 026°02'0 0.0
2017-Nov-15 00:53N 70°59' E 026°02'0 0.0
2017-Nov-15 00:29N 70°59' E 026°02'0 0.0
2017-Nov-14 23:59N 70°59' E 026°02'0 0.0
2017-Nov-14 23:29N 70°59' E 026°02'0 0.0
2017-Nov-14 22:56N 70°59' E 026°02'0 0.0
2017-Nov-14 22:29N 70°59' E 026°02'0 0.0
2017-Nov-14 21:59N 70°59' E 026°02'0 0.0
2017-Nov-14 21:23N 70°59' E 026°02'0 0.0
2017-Nov-14 17:17N 70°59' E 026°02'0 0.2
2017-Nov-14 16:47N 70°59' E 026°02'0 0.5
2017-Nov-14 16:30N 70°59' E 026°02'1 1.9
2017-Nov-14 16:00N 70°58' E 026°01'4 7.4
2017-Nov-14 15:30N 70°55' E 025°59'4 7.5
2017-Nov-14 14:59N 70°51' E 025°57'4 7.5
2017-Nov-14 14:30N 70°47' E 025°56'0 0.5
2017-Nov-14 14:00N 70°47' E 025°56'1 1.1
2017-Nov-14 13:30N 70°48' E 025°56'1 1.3
2017-Nov-14 13:00N 70°47' E 025°56'0 0.8
2017-Nov-14 12:30N 70°47' E 025°55'1 1.1
2017-Nov-14 12:00N 70°46' E 025°56'1 1.1
2017-Nov-14 11:30N 70°46' E 025°55'1 2.0
2017-Nov-14 10:59N 70°45' E 025°54'3 6.0
2017-Nov-14 10:30N 70°42' E 025°53'2 5.0
2017-Nov-14 10:00N 70°44' E 025°48'2 3.5
2017-Nov-14 09:30N 70°45' E 025°52'2 3.9
2017-Nov-14 09:00N 70°46' E 025°56'2 4.1
2017-Nov-14 08:30N 70°49' E 025°55'4 8.3
2017-Nov-14 07:59N 70°53' E 025°57'4 8.3
2017-Nov-14 07:29N 70°57' E 025°60'2 2.7
2017-Nov-14 06:33N 70°59' E 026°02'0 0.1
2017-Nov-14 06:17N 70°59' E 026°02'0 0.1
2017-Nov-14 05:35N 70°59' E 026°02'0 0.0
2017-Nov-14 01:31N 70°59' E 026°02'0 0.0
2017-Nov-14 01:28N 70°59' E 026°02'0 0.0
2017-Nov-14 00:55N 70°59' E 026°02'0 0.0
2017-Nov-14 00:19N 70°59' E 026°02'0 0.0
2017-Nov-13 23:55N 70°59' E 026°02'0 0.0
2017-Nov-13 23:28N 70°59' E 026°02'0 0.0
2017-Nov-13 22:55N 70°59' E 026°02'0 0.0
2017-Nov-13 22:25N 70°59' E 026°02'0 0.0
2017-Nov-13 21:55N 70°59' E 026°02'0 0.0
2017-Nov-13 01:59N 70°59' E 026°02'0 0.0
2017-Nov-13 01:17N 70°59' E 026°02'0 0.0
2017-Nov-13 00:59N 70°59' E 026°02'0 0.0
2017-Nov-13 00:29N 70°59' E 026°02'0 0.0
2017-Nov-12 23:59N 70°59' E 026°02'0 0.0
2017-Nov-12 23:29N 70°59' E 026°02'0 0.0
2017-Nov-12 22:59N 70°59' E 026°02'0 0.0
2017-Nov-12 22:29N 70°59' E 026°02'0 0.0
2017-Nov-12 21:59N 70°59' E 026°02'0 0.0
2017-Nov-12 21:29N 70°59' E 026°02'0 0.0
2017-Nov-12 20:59N 70°59' E 026°02'0 0.0
2017-Nov-12 20:29N 70°59' E 026°02'0 0.0
2017-Nov-12 19:59N 70°59' E 026°02'0 0.0
2017-Nov-12 19:29N 70°59' E 026°02'0 0.0
2017-Nov-12 18:59N 70°59' E 026°02'0 0.0
2017-Nov-12 18:29N 70°59' E 026°02'0 0.0
2017-Nov-12 17:56N 70°59' E 026°02'0 0.0
2017-Nov-12 17:29N 70°59' E 026°02'0 0.0
2017-Nov-12 16:59N 70°59' E 026°02'0 0.0
2017-Nov-12 16:26N 70°59' E 026°02'0 0.0
2017-Nov-12 15:59N 70°59' E 026°02'0 0.0
2017-Nov-12 15:23N 70°59' E 026°02'0 0.0
2017-Nov-12 14:59N 70°59' E 026°02'0 0.0
2017-Nov-12 14:29N 70°59' E 026°02'0 0.0
2017-Nov-12 13:56N 70°59' E 026°02'0 0.0
2017-Nov-12 13:17N 70°59' E 026°02'0 0.0
2017-Nov-12 12:50N 70°59' E 026°02'0 0.0
2017-Nov-12 12:29N 70°59' E 026°02'0 0.0
2017-Nov-12 11:59N 70°59' E 026°02'0 0.0
2017-Nov-12 11:29N 70°59' E 026°02'0 0.0
2017-Nov-12 10:59N 70°59' E 026°02'0 0.0
2017-Nov-12 10:26N 70°59' E 026°02'0 0.0
2017-Nov-12 09:56N 70°59' E 026°02'0 0.0
2017-Nov-12 09:26N 70°59' E 026°02'0 0.0
2017-Nov-12 08:59N 70°59' E 026°02'0 0.0
2017-Nov-12 08:29N 70°59' E 026°02'0 0.0
2017-Nov-12 07:56N 70°59' E 026°02'0 0.0
2017-Nov-12 07:29N 70°59' E 026°02'0 0.0
2017-Nov-12 06:59N 70°59' E 026°02'0 0.0
2017-Nov-12 06:29N 70°59' E 026°02'0 0.0
2017-Nov-12 05:59N 70°59' E 026°02'0 0.0
2017-Nov-12 05:29N 70°59' E 026°02'0 0.0
2017-Nov-12 04:59N 70°59' E 026°02'0 0.0
2017-Nov-12 04:29N 70°59' E 026°02'0 0.0
2017-Nov-12 03:56N 70°59' E 026°02'0 0.0
2017-Nov-12 03:29N 70°59' E 026°02'0 0.0
2017-Nov-12 02:35N 70°59' E 026°02'0 0.0
2017-Nov-12 02:29N 70°59' E 026°02'0 0.0
2017-Nov-12 01:59N 70°59' E 026°02'0 0.0
2017-Nov-12 01:26N 70°59' E 026°02'0 0.0
2017-Nov-12 00:35N 70°59' E 026°02'0 0.0
2017-Nov-12 00:26N 70°59' E 026°02'0 0.0
2017-Nov-11 23:38N 70°59' E 026°02'0 0.0
2017-Nov-11 23:23N 70°59' E 026°02'0 0.0
2017-Nov-11 22:56N 70°59' E 026°02'0 0.0
2017-Nov-11 22:29N 70°59' E 026°02'0 0.0
2017-Nov-11 21:59N 70°59' E 026°02'0 0.0
2017-Nov-11 21:29N 70°59' E 026°02'0 0.0
2017-Nov-11 20:59N 70°59' E 026°02'0 0.0
2017-Nov-11 20:29N 70°59' E 026°02'0 0.0
2017-Nov-11 19:53N 70°59' E 026°02'0 0.0
2017-Nov-11 19:29N 70°59' E 026°02'0 0.0
2017-Nov-11 18:59N 70°59' E 026°02'0 0.0
2017-Nov-11 18:29N 70°59' E 026°02'0 0.0
2017-Nov-11 17:56N 70°59' E 026°02'0 0.0
2017-Nov-11 17:26N 70°59' E 026°02'0 0.0
2017-Nov-11 16:59N 70°59' E 026°02'0 0.0
2017-Nov-11 16:29N 70°59' E 026°02'0 0.0
2017-Nov-11 15:50N 70°59' E 026°02'0 0.0
2017-Nov-11 15:29N 70°59' E 026°02'0 0.0
2017-Nov-11 14:59N 70°59' E 026°02'0 0.0
2017-Nov-11 14:23N 70°59' E 026°02'0 0.0
2017-Nov-11 13:50N 70°59' E 026°02'0 0.0
2017-Nov-11 13:29N 70°59' E 026°02'0 0.0
2017-Nov-11 12:59N 70°59' E 026°02'0 0.0
2017-Nov-11 12:26N 70°59' E 026°02'0 0.0
2017-Nov-11 11:59N 70°59' E 026°02'0 0.0
2017-Nov-11 11:29N 70°59' E 026°02'0 0.0
2017-Nov-11 10:56N 70°59' E 026°02'0 0.0
2017-Nov-11 10:26N 70°59' E 026°02'0 0.0
2017-Nov-11 09:56N 70°59' E 026°02'0 0.0
2017-Nov-11 09:29N 70°59' E 026°02'0 0.0
2017-Nov-11 08:56N 70°59' E 026°02'0 0.0
2017-Nov-11 08:29N 70°59' E 026°02'0 0.0
2017-Nov-11 07:59N 70°59' E 026°02'0 0.0
2017-Nov-11 07:26N 70°59' E 026°02'0 0.0
2017-Nov-11 06:59N 70°59' E 026°02'0 0.0
2017-Nov-11 06:29N 70°59' E 026°02'0 0.0
2017-Nov-11 05:59N 70°59' E 026°02'0 0.0
2017-Nov-11 05:26N 70°59' E 026°02'0 0.0
2017-Nov-11 04:59N 70°59' E 026°02'0 0.0
2017-Nov-11 04:29N 70°59' E 026°02'0 0.0
2017-Nov-11 03:59N 70°59' E 026°02'0 0.0
2017-Nov-11 03:29N 70°59' E 026°02'0 0.0
2017-Nov-11 02:59N 70°59' E 026°02'0 0.0
2017-Nov-11 02:17N 70°59' E 026°02'0 0.0
2017-Nov-11 01:59N 70°59' E 026°02'0 0.0
2017-Nov-11 01:29N 70°59' E 026°02'0 0.0
2017-Nov-11 00:59N 70°59' E 026°02'0 0.0
2017-Nov-11 00:29N 70°59' E 026°02'0 0.0
2017-Nov-10 23:47N 70°59' E 026°02'0 0.0
2017-Nov-10 23:29N 70°59' E 026°02'0 0.0
2017-Nov-10 22:59N 70°59' E 026°02'0 0.0
2017-Nov-10 22:29N 70°59' E 026°02'0 0.0
2017-Nov-10 21:59N 70°59' E 026°02'0 0.0
2017-Nov-10 21:29N 70°59' E 026°02'0 0.0
2017-Nov-10 20:56N 70°59' E 026°02'0 0.0
2017-Nov-10 20:26N 70°59' E 026°02'0 0.0
2017-Nov-10 19:59N 70°59' E 026°02'0 0.0
2017-Nov-10 19:29N 70°59' E 026°02'0 0.0
2017-Nov-10 18:59N 70°59' E 026°02'0 0.0
2017-Nov-10 18:26N 70°59' E 026°02'0 0.0
2017-Nov-10 17:59N 70°59' E 026°02'0 0.0
2017-Nov-10 17:29N 70°59' E 026°02'0 0.0
2017-Nov-10 16:59N 70°59' E 026°02'0 0.0
2017-Nov-10 16:26N 70°59' E 026°02'0 0.0
2017-Nov-10 15:59N 70°59' E 026°02'0 0.0
2017-Nov-10 15:29N 70°59' E 026°02'0 0.0
2017-Nov-10 14:59N 70°59' E 026°02'0 0.0
2017-Nov-10 14:23N 70°59' E 026°02'0 0.0
2017-Nov-10 13:59N 70°59' E 026°02'0 0.0
2017-Nov-10 13:29N 70°59' E 026°02'0 0.0
2017-Nov-10 12:47N 70°59' E 026°02'0 0.0
2017-Nov-10 12:29N 70°59' E 026°02'0 0.0
2017-Nov-10 11:59N 70°59' E 026°02'0 0.0
2017-Nov-10 11:29N 70°59' E 026°02'0 0.0
2017-Nov-10 10:50N 70°59' E 026°02'0 0.0
2017-Nov-10 10:23N 70°59' E 026°02'0 0.0
2017-Nov-10 09:56N 70°59' E 026°02'0 0.0
2017-Nov-10 09:23N 70°59' E 026°02'0 0.0
2017-Nov-10 08:56N 70°59' E 026°02'0 0.0
2017-Nov-10 08:29N 70°59' E 026°02'0 0.0
2017-Nov-10 07:56N 70°59' E 026°02'0 0.0
2017-Nov-10 07:26N 70°59' E 026°02'0 0.0
2017-Nov-10 06:56N 70°59' E 026°02'0 0.0
2017-Nov-10 06:26N 70°59' E 026°02'0 0.0
2017-Nov-10 05:59N 70°59' E 026°02'0 0.0
2017-Nov-10 05:23N 70°59' E 026°02'0 0.0
2017-Nov-10 04:59N 70°59' E 026°02'0 0.0
2017-Nov-10 04:29N 70°59' E 026°02'0 0.0
2017-Nov-10 03:59N 70°59' E 026°02'0 0.0
2017-Nov-10 03:20N 70°59' E 026°02'0 0.0
2017-Nov-10 02:56N 70°59' E 026°02'0 0.0
2017-Nov-10 02:26N 70°59' E 026°02'0 0.0
2017-Nov-10 01:56N 70°59' E 026°02'0 0.0
2017-Nov-10 01:14N 70°59' E 026°02'0 0.0
2017-Nov-09 23:44N 70°59' E 026°02'0 0.0
2017-Nov-09 23:23N 70°59' E 026°02'0 0.0
2017-Nov-09 22:59N 70°59' E 026°02'0 0.0
2017-Nov-09 22:20N 70°59' E 026°02'0 0.0
2017-Nov-09 21:56N 70°59' E 026°02'0 0.0
2017-Nov-09 21:29N 70°59' E 026°02'0 0.0
2017-Nov-09 20:53N 70°59' E 026°02'0 0.0
2017-Nov-09 19:29N 70°59' E 026°02'0 0.0
2017-Nov-09 16:38N 70°59' E 026°02'0 0.0
2017-Nov-09 15:41N 70°59' E 026°02'0 0.0
2017-Nov-09 15:29N 70°59' E 026°02'0 0.0
2017-Nov-09 14:56N 70°59' E 026°02'0 0.0
2017-Nov-09 14:26N 70°59' E 026°02'0 0.0
2017-Nov-09 13:53N 70°59' E 026°02'0 0.0
2017-Nov-09 13:23N 70°59' E 026°02'0 0.0
2017-Nov-09 12:11N 70°59' E 026°02'0 0.0
2017-Nov-09 11:56N 70°59' E 026°02'0 0.0
2017-Nov-09 11:26N 70°59' E 026°02'0 0.0
2017-Nov-09 10:59N 70°59' E 026°02'0 0.0
2017-Nov-09 10:23N 70°59' E 026°02'0 0.0
2017-Nov-09 09:56N 70°59' E 026°02'0 0.0
2017-Nov-09 09:29N 70°59' E 026°02'0 0.0
2017-Nov-09 08:59N 70°59' E 026°02'0 0.0
2017-Nov-09 08:29N 70°59' E 026°02'0 0.0
2017-Nov-09 07:59N 70°59' E 026°02'0 0.0
2017-Nov-09 07:29N 70°59' E 026°02'0 0.0
2017-Nov-09 06:59N 70°59' E 026°02'0 0.0
2017-Nov-09 06:29N 70°59' E 026°02'0 0.0
2017-Nov-09 05:59N 70°59' E 026°02'0 0.0
2017-Nov-09 05:29N 70°59' E 026°02'0 0.0
2017-Nov-09 04:59N 70°59' E 026°02'0 0.0
2017-Nov-09 04:29N 70°59' E 026°02'0 0.0
2017-Nov-09 03:59N 70°59' E 026°02'0 0.0
2017-Nov-09 03:29N 70°59' E 026°02'0 0.0
2017-Nov-09 02:53N 70°59' E 026°02'0 0.0
2017-Nov-09 02:29N 70°59' E 026°02'0 0.0
2017-Nov-09 01:53N 70°59' E 026°02'0 0.0
2017-Nov-09 01:29N 70°59' E 026°02'0 0.0
2017-Nov-08 23:35N 70°59' E 026°02'0 0.0
2017-Nov-08 22:53N 70°59' E 026°02'0 0.0
2017-Nov-08 21:23N 70°59' E 026°02'0 0.0
2017-Nov-08 20:29N 70°59' E 026°02'0 0.0
2017-Nov-08 19:56N 70°59' E 026°02'0 0.0
2017-Nov-08 19:26N 70°59' E 026°02'0 0.0
2017-Nov-08 18:59N 70°59' E 026°02'0 0.0
2017-Nov-08 18:29N 70°59' E 026°02'0 0.0
2017-Nov-08 17:59N 70°59' E 026°02'0 0.0
2017-Nov-08 17:17N 70°59' E 026°02'0 0.0
2017-Nov-08 16:53N 70°59' E 026°02'0 0.0
2017-Nov-08 16:29N 70°59' E 026°02'0 0.0
2017-Nov-08 15:59N 70°59' E 026°02'0 0.0
2017-Nov-08 15:29N 70°59' E 026°02'0 0.0
2017-Nov-08 14:59N 70°59' E 026°02'0 0.0
2017-Nov-08 14:29N 70°59' E 026°02'0 0.0
2017-Nov-08 11:47N 70°59' E 026°02'0 0.0
2017-Nov-08 09:05N 70°59' E 026°02'0 0.0
2017-Nov-08 08:59N 70°59' E 026°02'0 0.0
2017-Nov-08 08:29N 70°59' E 026°02'0 0.0
2017-Nov-08 07:59N 70°59' E 026°02'0 0.0
2017-Nov-08 07:23N 70°59' E 026°02'0 0.0
2017-Nov-08 06:59N 70°59' E 026°02'0 0.0
2017-Nov-08 06:29N 70°59' E 026°02'0 0.0
2017-Nov-08 05:56N 70°59' E 026°02'0 0.0
2017-Nov-08 05:29N 70°59' E 026°02'0 0.0
2017-Nov-08 04:50N 70°59' E 026°02'0 0.0
2017-Nov-08 04:23N 70°59' E 026°02'0 0.0
2017-Nov-08 03:59N 70°59' E 026°02'0 0.0
2017-Nov-08 03:29N 70°59' E 026°02'0 0.0
2017-Nov-08 02:59N 70°59' E 026°02'0 0.0
2017-Nov-08 02:26N 70°59' E 026°02'0 0.0
2017-Nov-08 01:56N 70°59' E 026°02'0 0.0
2017-Nov-08 01:29N 70°59' E 026°02'0 0.0
2017-Nov-08 00:59N 70°59' E 026°02'0 0.0
2017-Nov-08 00:29N 70°59' E 026°02'0 0.0
2017-Nov-07 22:26N 70°59' E 026°02'0 0.0
2017-Nov-07 18:56N 70°59' E 026°02'0 0.0
2017-Nov-07 18:29N 70°59' E 026°02'0 0.0
2017-Nov-07 17:59N 70°59' E 026°02'0 0.0
2017-Nov-07 17:20N 70°59' E 026°02'0 0.0
2017-Nov-07 16:44N 70°59' E 026°02'0 0.0
2017-Nov-07 16:29N 70°59' E 026°02'0 0.0
2017-Nov-07 15:56N 70°59' E 026°02'0 0.0
2017-Nov-07 15:23N 70°59' E 026°02'0 0.0
2017-Nov-07 14:59N 70°59' E 026°02'0 0.0
2017-Nov-07 14:26N 70°59' E 026°02'0 0.0
2017-Nov-07 13:53N 70°59' E 026°02'0 0.0
2017-Nov-07 13:29N 70°59' E 026°02'0 0.0
2017-Nov-07 12:47N 70°59' E 026°02'0 0.0
2017-Nov-07 12:29N 70°59' E 026°02'0 0.0
2017-Nov-07 11:59N 70°59' E 026°02'0 0.0
2017-Nov-07 11:23N 70°59' E 026°02'0 0.0
2017-Nov-07 10:59N 70°59' E 026°02'0 0.0
2017-Nov-07 10:29N 70°59' E 026°02'0 0.0
2017-Nov-07 09:59N 70°59' E 026°02'0 0.0
2017-Nov-07 09:23N 70°59' E 026°02'0 0.0
2017-Nov-07 08:50N 70°59' E 026°02'0 0.0
2017-Nov-07 08:26N 70°59' E 026°02'0 0.0
2017-Nov-07 07:47N 70°59' E 026°02'0 0.0
2017-Nov-07 07:29N 70°59' E 026°02'0 0.0
2017-Nov-07 06:59N 70°59' E 026°02'0 0.0
2017-Nov-07 06:29N 70°59' E 026°02'0 0.0
2017-Nov-07 05:53N 70°59' E 026°02'0 0.0
2017-Nov-07 05:26N 70°59' E 026°02'0 0.0
2017-Nov-07 04:56N 70°59' E 026°02'0 0.0
2017-Nov-07 04:29N 70°59' E 026°02'0 0.0
2017-Nov-07 03:59N 70°59' E 026°02'0 0.0
2017-Nov-07 03:29N 70°59' E 026°02'0 0.0
2017-Nov-07 02:59N 70°59' E 026°02'0 0.0
2017-Nov-07 02:29N 70°59' E 026°02'0 0.0
2017-Nov-07 01:56N 70°59' E 026°02'0 0.0
2017-Nov-07 01:29N 70°59' E 026°02'0 0.0
2017-Nov-07 00:59N 70°59' E 026°02'0 0.0
2017-Nov-07 00:29N 70°59' E 026°02'0 0.0
2017-Nov-06 23:59N 70°59' E 026°02'0 0.0
2017-Nov-06 23:29N 70°59' E 026°02'0 0.0
2017-Nov-06 22:56N 70°59' E 026°02'0 0.0
2017-Nov-06 22:20N 70°59' E 026°02'0 0.0
2017-Nov-06 21:59N 70°59' E 026°02'0 0.0
2017-Nov-06 21:29N 70°59' E 026°02'0 0.0
2017-Nov-06 20:59N 70°59' E 026°02'0 0.0
2017-Nov-06 20:29N 70°59' E 026°02'  

Dump ship's entire track history